createdAt,value
2022-12-18T00:00:19.212Z,100.00
2022-12-18T00:02:47.493Z,100.00
2022-12-18T00:05:15.866Z,100.00
2022-12-18T00:07:48.565Z,100.00
2022-12-18T00:10:18.284Z,100.00
2022-12-18T00:12:47.463Z,100.00
2022-12-18T00:15:15.970Z,100.00
2022-12-18T00:17:54.697Z,100.00
2022-12-18T00:20:26.787Z,100.00
2022-12-18T00:22:59.222Z,100.00
2022-12-18T00:25:29.484Z,100.00
2022-12-18T00:28:01.103Z,100.00
2022-12-18T00:30:30.279Z,100.00
2022-12-18T00:33:01.727Z,100.00
2022-12-18T00:35:30.587Z,100.00
2022-12-18T00:38:01.590Z,100.00
2022-12-18T00:40:29.761Z,100.00
2022-12-18T00:42:56.904Z,100.00
2022-12-18T00:45:27.395Z,100.00
2022-12-18T00:47:58.462Z,100.00
2022-12-18T00:50:36.731Z,100.00
2022-12-18T00:53:09.507Z,100.00
2022-12-18T00:55:39.271Z,100.00
2022-12-18T00:58:07.941Z,100.00
2022-12-18T01:00:36.293Z,100.00
2022-12-18T01:03:05.229Z,100.00
2022-12-18T01:05:33.445Z,100.00
2022-12-18T01:08:04.733Z,100.00
2022-12-18T01:10:35.531Z,100.00
2022-12-18T01:13:05.098Z,100.00
2022-12-18T01:15:35.295Z,100.00
2022-12-18T01:18:03.784Z,100.00
2022-12-18T01:20:32.264Z,100.00
2022-12-18T01:23:02.645Z,100.00
2022-12-18T01:25:30.861Z,100.00
2022-12-18T01:28:00.512Z,100.00
2022-12-18T01:30:28.744Z,100.00
2022-12-18T01:32:56.938Z,100.00
2022-12-18T01:35:25.627Z,100.00
2022-12-18T01:37:56.996Z,100.00
2022-12-18T01:40:25.563Z,100.00
2022-12-18T01:42:54.611Z,100.00
2022-12-18T01:45:34.845Z,100.00
2022-12-18T01:48:05.674Z,100.00
2022-12-18T01:50:38.236Z,100.00
2022-12-18T01:53:13.754Z,100.00
2022-12-18T01:55:45.729Z,100.00
2022-12-18T01:58:14.048Z,100.00
2022-12-18T02:00:43.912Z,100.00
2022-12-18T02:03:13.164Z,100.00
2022-12-18T02:05:50.067Z,100.00
2022-12-18T02:08:24.181Z,100.00
2022-12-18T02:11:08.079Z,100.00
2022-12-18T02:13:44.563Z,100.00
2022-12-18T02:16:23.901Z,100.00
2022-12-18T02:18:58.817Z,100.00
2022-12-18T02:21:36.697Z,100.00
2022-12-18T02:24:22.896Z,100.00
2022-12-18T02:26:55.644Z,100.00
2022-12-18T02:29:29.029Z,100.00
2022-12-18T02:32:00.082Z,100.00
2022-12-18T02:34:32.196Z,100.00
2022-12-18T02:37:06.616Z,100.00
2022-12-18T02:39:36.481Z,100.00
2022-12-18T02:42:09.034Z,100.00
2022-12-18T02:44:43.894Z,100.00
2022-12-18T02:47:13.600Z,100.00
2022-12-18T02:49:52.106Z,100.00
2022-12-18T02:52:31.079Z,100.00
2022-12-18T02:55:08.283Z,100.00
2022-12-18T02:57:44.826Z,100.00
2022-12-18T03:00:18.738Z,100.00
2022-12-18T03:02:51.255Z,100.00
2022-12-18T03:05:23.329Z,100.00
2022-12-18T03:07:59.132Z,100.00
2022-12-18T03:10:35.475Z,100.00
2022-12-18T03:13:08.448Z,100.00
2022-12-18T03:15:41.069Z,100.00
2022-12-18T03:18:14.038Z,100.00
2022-12-18T03:20:44.639Z,100.00
2022-12-18T03:23:18.143Z,100.00
2022-12-18T03:25:48.755Z,100.00
2022-12-18T03:28:22.971Z,100.00
2022-12-18T03:30:56.229Z,100.00
2022-12-18T03:33:30.075Z,100.00
2022-12-18T03:35:58.727Z,100.00
2022-12-18T03:38:29.152Z,100.00
2022-12-18T03:41:08.627Z,100.00
2022-12-18T03:43:49.980Z,100.00
2022-12-18T03:46:26.877Z,100.00
2022-12-18T03:49:02.427Z,100.00
2022-12-18T03:51:41.822Z,100.00
2022-12-18T03:54:12.347Z,100.00
2022-12-18T03:56:44.515Z,100.00
2022-12-18T03:59:19.947Z,100.00
2022-12-18T04:01:50.562Z,100.00
2022-12-18T04:04:21.062Z,100.00
2022-12-18T04:06:51.506Z,100.00
2022-12-18T04:09:21.609Z,100.00
2022-12-18T04:11:51.488Z,100.00
2022-12-18T04:14:24.715Z,100.00
2022-12-18T04:16:53.005Z,100.00
2022-12-18T04:19:21.152Z,100.00
2022-12-18T04:21:49.287Z,100.00
2022-12-18T04:24:19.378Z,100.00
2022-12-18T04:26:47.662Z,100.00
2022-12-18T04:29:15.973Z,100.00
2022-12-18T04:31:46.691Z,100.00
2022-12-18T04:34:15.240Z,100.00
2022-12-18T04:36:43.861Z,100.00
2022-12-18T04:39:12.256Z,100.00
2022-12-18T04:41:40.649Z,100.00
2022-12-18T04:44:15.904Z,100.00
2022-12-18T04:46:46.385Z,100.00
2022-12-18T04:49:14.664Z,100.00
2022-12-18T04:51:43.499Z,100.00
2022-12-18T04:54:11.631Z,100.00
2022-12-18T04:56:39.876Z,100.00
2022-12-18T04:59:10.544Z,100.00
2022-12-18T05:01:38.858Z,100.00
2022-12-18T05:04:08.594Z,100.00
2022-12-18T05:06:37.085Z,100.00
2022-12-18T05:09:06.685Z,100.00
2022-12-18T05:11:36.543Z,99.81
2022-12-18T05:14:04.866Z,99.69
2022-12-18T05:16:40.830Z,99.53
2022-12-18T05:19:16.555Z,99.56
2022-12-18T05:21:47.376Z,99.68
2022-12-18T05:24:17.831Z,99.66
2022-12-18T05:26:46.687Z,99.84
2022-12-18T05:29:19.006Z,100.00
2022-12-18T05:31:49.017Z,100.00
2022-12-18T05:34:18.623Z,99.78
2022-12-18T05:36:48.159Z,99.36
2022-12-18T05:39:16.345Z,99.75
2022-12-18T05:41:44.600Z,99.84
2022-12-18T05:44:12.745Z,100.00
2022-12-18T05:46:44.099Z,100.00
2022-12-18T05:49:12.660Z,99.76
2022-12-18T05:51:42.662Z,99.91
2022-12-18T05:54:10.875Z,100.00
2022-12-18T05:56:41.053Z,100.00
2022-12-18T05:59:12.393Z,99.96
2022-12-18T06:01:40.840Z,99.47
2022-12-18T06:04:11.234Z,99.25
2022-12-18T06:06:39.601Z,99.41
2022-12-18T06:09:10.692Z,98.86
2022-12-18T06:11:39.355Z,98.88
2022-12-18T06:14:08.732Z,98.79
2022-12-18T06:16:37.456Z,98.87
2022-12-18T06:19:07.363Z,98.82
2022-12-18T06:21:40.047Z,98.62
2022-12-18T06:24:09.901Z,98.60
2022-12-18T06:26:40.798Z,98.50
2022-12-18T06:29:08.897Z,98.28
2022-12-18T06:31:37.036Z,98.06
2022-12-18T06:34:06.162Z,97.95
2022-12-18T06:36:34.393Z,97.85
2022-12-18T06:39:02.509Z,97.41
2022-12-18T06:41:32.424Z,97.17
2022-12-18T06:44:01.785Z,96.89
2022-12-18T06:46:29.925Z,96.29
2022-12-18T06:48:58.397Z,96.11
2022-12-18T06:51:28.187Z,95.85
2022-12-18T06:53:56.630Z,95.97
2022-12-18T06:56:24.809Z,95.68
2022-12-18T06:58:54.615Z,95.31
2022-12-18T07:01:24.521Z,95.37
2022-12-18T07:03:55.734Z,95.84
2022-12-18T07:06:26.238Z,96.68
2022-12-18T07:08:55.925Z,97.06
2022-12-18T07:11:24.290Z,96.86
2022-12-18T07:13:54.965Z,94.62
2022-12-18T07:16:26.363Z,93.44
2022-12-18T07:18:55.023Z,92.28
2022-12-18T07:21:24.114Z,92.19
2022-12-18T07:23:52.390Z,90.97
2022-12-18T07:26:22.655Z,90.33
2022-12-18T07:28:51.443Z,91.38
2022-12-18T07:31:23.677Z,92.26
2022-12-18T07:33:52.455Z,92.77
2022-12-18T07:36:22.243Z,93.21
2022-12-18T07:38:51.180Z,93.46
2022-12-18T07:41:21.299Z,93.38
2022-12-18T07:43:50.032Z,93.67
2022-12-18T07:46:21.444Z,93.54
2022-12-18T07:48:50.410Z,92.98
2022-12-18T07:51:19.744Z,93.21
2022-12-18T07:53:51.998Z,93.27
2022-12-18T07:56:30.480Z,93.90
2022-12-18T07:59:00.797Z,94.22
2022-12-18T08:01:30.687Z,94.24
2022-12-18T08:03:59.818Z,93.78
2022-12-18T08:06:30.821Z,93.86
2022-12-18T08:08:59.609Z,94.26
2022-12-18T08:11:29.736Z,94.34
2022-12-18T08:13:58.054Z,94.48
2022-12-18T08:16:27.304Z,94.65
2022-12-18T08:18:57.557Z,95.19
2022-12-18T08:21:27.413Z,95.78
2022-12-18T08:23:57.993Z,95.64
2022-12-18T08:26:28.354Z,95.43
2022-12-18T08:28:59.590Z,95.01
2022-12-18T08:31:29.376Z,95.02
2022-12-18T08:34:00.389Z,94.84
2022-12-18T08:36:29.754Z,95.42
2022-12-18T08:39:01.055Z,96.11
2022-12-18T08:41:29.341Z,96.99
2022-12-18T08:44:14.721Z,97.67
2022-12-18T08:46:46.862Z,98.42
2022-12-18T08:49:17.855Z,98.73
2022-12-18T08:51:46.282Z,99.40
2022-12-18T08:54:15.278Z,100.00
2022-12-18T08:56:43.298Z,100.00
2022-12-18T08:59:17.560Z,100.00
2022-12-18T09:01:51.016Z,100.00
2022-12-18T09:04:21.595Z,100.00
2022-12-18T09:06:51.197Z,100.00
2022-12-18T09:09:19.477Z,100.00
2022-12-18T09:11:56.345Z,100.00
2022-12-18T09:14:24.920Z,100.00
2022-12-18T09:16:53.540Z,100.00
2022-12-18T09:19:23.207Z,100.00
2022-12-18T09:21:52.660Z,100.00
2022-12-18T09:24:24.923Z,100.00
2022-12-18T09:26:57.923Z,100.00
2022-12-18T09:29:28.091Z,100.00
2022-12-18T09:31:56.204Z,100.00
2022-12-18T09:34:26.045Z,100.00
2022-12-18T09:36:56.590Z,100.00
2022-12-18T09:39:28.005Z,100.00
2022-12-18T09:41:58.464Z,100.00
2022-12-18T09:44:29.684Z,100.00
2022-12-18T09:47:10.572Z,100.00
2022-12-18T09:49:44.921Z,100.00
2022-12-18T09:52:18.672Z,100.00
2022-12-18T09:54:52.887Z,100.00
2022-12-18T09:57:23.834Z,100.00
2022-12-18T09:59:59.133Z,100.00
2022-12-18T10:02:29.066Z,100.00
2022-12-18T10:05:11.485Z,100.00
2022-12-18T10:07:51.503Z,100.00
2022-12-18T10:10:36.638Z,100.00
2022-12-18T10:13:15.310Z,100.00
2022-12-18T10:16:03.665Z,100.00
2022-12-18T10:18:46.768Z,100.00
2022-12-18T10:21:24.405Z,100.00
2022-12-18T10:24:00.203Z,100.00
2022-12-18T10:26:31.129Z,100.00
2022-12-18T10:29:05.663Z,100.00
2022-12-18T10:31:34.338Z,100.00
2022-12-18T10:34:02.993Z,100.00
2022-12-18T10:36:38.433Z,100.00
2022-12-18T10:39:27.730Z,100.00
2022-12-18T10:42:14.195Z,100.00
2022-12-18T10:44:43.556Z,100.00
2022-12-18T10:47:17.007Z,100.00
2022-12-18T10:49:52.471Z,100.00
2022-12-18T10:52:30.394Z,100.00
2022-12-18T10:55:04.359Z,100.00
2022-12-18T10:57:38.593Z,100.00
2022-12-18T11:00:29.206Z,100.00
2022-12-18T11:02:59.681Z,100.00
2022-12-18T11:05:35.346Z,100.00
2022-12-18T11:08:07.211Z,100.00
2022-12-18T11:10:42.000Z,100.00
2022-12-18T11:13:21.639Z,100.00
2022-12-18T11:15:50.923Z,100.00
2022-12-18T11:18:25.106Z,100.00
2022-12-18T11:20:58.734Z,100.00
2022-12-18T11:23:35.568Z,100.00
2022-12-18T11:26:07.078Z,100.00
2022-12-18T11:28:44.123Z,100.00
2022-12-18T11:31:23.646Z,100.00
2022-12-18T11:34:27.505Z,100.00
2022-12-18T11:36:49.805Z,100.00
2022-12-18T11:39:39.952Z,100.00
2022-12-18T11:42:19.743Z,100.00
2022-12-18T11:44:55.576Z,100.00
2022-12-18T11:47:31.648Z,100.00
2022-12-18T11:50:05.089Z,100.00
2022-12-18T11:52:39.067Z,100.00
2022-12-18T11:55:14.512Z,100.00
2022-12-18T11:57:54.611Z,100.00
2022-12-18T12:00:27.445Z,100.00
2022-12-18T12:03:28.130Z,100.00
2022-12-18T12:06:20.221Z,100.00
2022-12-18T12:09:03.172Z,100.00
2022-12-18T12:11:46.368Z,100.00
2022-12-18T12:14:29.335Z,100.00
2022-12-18T12:17:05.030Z,100.00
2022-12-18T12:19:43.998Z,100.00
2022-12-18T12:22:22.547Z,100.00
2022-12-18T12:25:22.140Z,100.00
2022-12-18T12:28:06.662Z,100.00
2022-12-18T12:30:50.520Z,100.00
2022-12-18T12:33:39.747Z,100.00
2022-12-18T12:36:18.598Z,100.00
2022-12-18T12:38:52.976Z,100.00
2022-12-18T12:41:42.391Z,100.00
2022-12-18T12:44:19.604Z,100.00
2022-12-18T12:46:50.210Z,100.00
2022-12-18T12:49:40.310Z,100.00
2022-12-18T12:52:16.414Z,100.00
2022-12-18T12:54:49.149Z,100.00
2022-12-18T12:57:29.287Z,100.00
2022-12-18T13:00:11.373Z,100.00
2022-12-18T13:02:48.283Z,100.00
2022-12-18T13:05:25.717Z,100.00
2022-12-18T13:08:03.821Z,100.00
2022-12-18T13:10:38.909Z,100.00
2022-12-18T13:13:46.796Z,100.00
2022-12-18T13:16:09.296Z,100.00
2022-12-18T13:18:38.303Z,100.00
2022-12-18T13:21:22.591Z,100.00
2022-12-18T13:23:53.559Z,100.00
2022-12-18T13:27:14.798Z,100.00
2022-12-18T13:29:45.135Z,100.00
2022-12-18T13:32:33.475Z,100.00
2022-12-18T13:35:44.282Z,100.00
2022-12-18T13:38:27.490Z,100.00
2022-12-18T13:40:59.144Z,100.00
2022-12-18T13:43:44.855Z,100.00
2022-12-18T13:46:22.635Z,100.00
2022-12-18T13:48:58.220Z,100.00
2022-12-18T13:51:28.072Z,100.00
2022-12-18T13:54:02.725Z,100.00
2022-12-18T13:56:35.431Z,100.00
2022-12-18T13:59:18.789Z,100.00
2022-12-18T14:01:54.385Z,100.00
2022-12-18T14:04:27.512Z,100.00
2022-12-18T14:07:00.148Z,100.00
2022-12-18T14:09:37.525Z,100.00
2022-12-18T14:12:30.806Z,100.00
2022-12-18T14:14:58.943Z,100.00
2022-12-18T14:17:28.778Z,100.00
2022-12-18T14:19:59.950Z,100.00
2022-12-18T14:22:30.644Z,100.00
2022-12-18T14:25:19.100Z,100.00
2022-12-18T14:27:49.350Z,100.00
2022-12-18T14:30:29.162Z,100.00
2022-12-18T14:33:12.763Z,100.00
2022-12-18T14:35:47.181Z,100.00
2022-12-18T14:38:30.715Z,100.00
2022-12-18T14:41:00.373Z,100.00
2022-12-18T14:43:29.577Z,100.00
2022-12-18T14:46:00.830Z,100.00
2022-12-18T14:48:38.743Z,100.00
2022-12-18T14:51:17.495Z,100.00
2022-12-18T14:53:54.303Z,100.00
2022-12-18T14:56:24.901Z,100.00
2022-12-18T14:59:04.543Z,100.00
2022-12-18T15:01:37.319Z,100.00
2022-12-18T15:04:28.170Z,100.00
2022-12-18T15:07:11.901Z,100.00
2022-12-18T15:09:41.660Z,100.00
2022-12-18T15:12:26.908Z,100.00
2022-12-18T15:14:55.204Z,100.00
2022-12-18T15:17:26.805Z,100.00
2022-12-18T15:20:02.280Z,100.00
2022-12-18T15:22:36.268Z,100.00
2022-12-18T15:25:24.614Z,100.00
2022-12-18T15:27:52.808Z,100.00
2022-12-18T15:30:28.214Z,100.00
2022-12-18T15:33:24.544Z,100.00
2022-12-18T15:35:59.225Z,100.00
2022-12-18T15:38:30.521Z,100.00
2022-12-18T15:41:01.970Z,100.00
2022-12-18T15:43:39.013Z,100.00
2022-12-18T15:46:11.593Z,100.00
2022-12-18T15:48:44.002Z,100.00
2022-12-18T15:51:17.549Z,100.00
2022-12-18T15:53:48.679Z,100.00
2022-12-18T15:56:35.156Z,100.00
2022-12-18T15:59:04.642Z,100.00
2022-12-18T16:01:36.091Z,100.00
2022-12-18T16:04:08.665Z,100.00
2022-12-18T16:06:58.082Z,100.00
2022-12-18T16:09:26.735Z,100.00
2022-12-18T16:11:55.107Z,100.00
2022-12-18T16:14:28.388Z,100.00
2022-12-18T16:17:00.256Z,100.00
2022-12-18T16:19:32.808Z,100.00
2022-12-18T16:22:04.339Z,100.00
2022-12-18T16:24:37.196Z,100.00
2022-12-18T16:27:05.979Z,100.00
2022-12-18T16:29:37.348Z,100.00
2022-12-18T16:32:09.877Z,100.00
2022-12-18T16:34:44.066Z,100.00
2022-12-18T16:37:22.377Z,100.00
2022-12-18T16:39:52.085Z,100.00
2022-12-18T16:42:22.478Z,100.00
2022-12-18T16:44:54.047Z,100.00
2022-12-18T16:47:23.072Z,100.00
2022-12-18T16:49:55.163Z,100.00
2022-12-18T16:52:23.889Z,100.00
2022-12-18T16:54:53.846Z,100.00
2022-12-18T16:57:26.436Z,100.00
2022-12-18T16:59:56.802Z,100.00
2022-12-18T17:02:29.344Z,100.00
2022-12-18T17:05:00.777Z,100.00
2022-12-18T17:07:30.221Z,100.00
2022-12-18T17:10:01.018Z,100.00
2022-12-18T17:12:29.741Z,100.00
2022-12-18T17:15:01.056Z,100.00
2022-12-18T17:17:29.643Z,100.00
2022-12-18T17:20:00.537Z,100.00
2022-12-18T17:22:29.302Z,100.00
2022-12-18T17:25:00.712Z,100.00
2022-12-18T17:27:30.623Z,100.00
2022-12-18T17:29:58.875Z,100.00
2022-12-18T17:32:27.957Z,100.00
2022-12-18T17:34:56.661Z,100.00
2022-12-18T17:37:26.523Z,100.00
2022-12-18T17:39:55.075Z,100.00
2022-12-18T17:42:25.100Z,100.00
2022-12-18T17:44:54.615Z,100.00
2022-12-18T17:47:25.118Z,100.00
2022-12-18T17:49:56.407Z,100.00
2022-12-18T17:52:26.220Z,100.00
2022-12-18T17:54:56.880Z,100.00
2022-12-18T17:57:25.120Z,100.00
2022-12-18T17:59:56.994Z,100.00
2022-12-18T18:02:25.632Z,100.00
2022-12-18T18:04:54.653Z,100.00
2022-12-18T18:07:23.171Z,100.00
2022-12-18T18:09:51.350Z,100.00
2022-12-18T18:12:36.815Z,100.00
2022-12-18T18:15:10.276Z,100.00
2022-12-18T18:17:39.063Z,100.00
2022-12-18T18:20:07.947Z,100.00
2022-12-18T18:22:36.957Z,100.00
2022-12-18T18:25:05.634Z,100.00
2022-12-18T18:27:38.906Z,100.00
2022-12-18T18:30:10.620Z,100.00
2022-12-18T18:32:42.646Z,100.00
2022-12-18T18:35:19.462Z,100.00
2022-12-18T18:37:58.962Z,100.00
2022-12-18T18:40:28.611Z,100.00
2022-12-18T18:42:57.859Z,100.00
2022-12-18T18:45:27.656Z,100.00
2022-12-18T18:47:56.089Z,100.00
2022-12-18T18:50:24.273Z,100.00
2022-12-18T18:52:52.339Z,100.00
2022-12-18T18:55:25.232Z,100.00
2022-12-18T18:57:54.483Z,100.00
2022-12-18T19:00:23.015Z,100.00
2022-12-18T19:02:57.723Z,100.00
2022-12-18T19:05:32.946Z,100.00
2022-12-18T19:08:01.572Z,100.00
2022-12-18T19:10:30.264Z,100.00
2022-12-18T19:13:16.992Z,100.00
2022-12-18T19:15:46.136Z,100.00
2022-12-18T19:18:16.898Z,100.00
2022-12-18T19:20:48.476Z,100.00
2022-12-18T19:23:17.071Z,100.00
2022-12-18T19:25:45.452Z,100.00
2022-12-18T19:28:22.145Z,100.00
2022-12-18T19:30:52.485Z,100.00
2022-12-18T19:33:44.405Z,100.00
2022-12-18T19:36:17.251Z,100.00
2022-12-18T19:38:46.219Z,100.00
2022-12-18T19:41:17.867Z,100.00
2022-12-18T19:43:47.072Z,100.00
2022-12-18T19:46:18.371Z,100.00
2022-12-18T19:48:50.456Z,100.00
2022-12-18T19:51:22.956Z,100.00
2022-12-18T19:53:58.904Z,100.00
2022-12-18T19:56:31.132Z,100.00
2022-12-18T19:59:00.473Z,100.00
2022-12-18T20:01:30.227Z,100.00
2022-12-18T20:04:03.823Z,100.00
2022-12-18T20:06:35.430Z,100.00
2022-12-18T20:09:06.667Z,100.00
2022-12-18T20:11:41.349Z,100.00
2022-12-18T20:14:23.007Z,100.00
2022-12-18T20:16:55.167Z,100.00
2022-12-18T20:19:28.525Z,100.00
2022-12-18T20:21:57.263Z,100.00
2022-12-18T20:24:28.027Z,100.00
2022-12-18T20:27:01.441Z,100.00
2022-12-18T20:29:30.722Z,100.00
2022-12-18T20:31:59.119Z,100.00
2022-12-18T20:34:34.303Z,100.00
2022-12-18T20:37:06.029Z,100.00
2022-12-18T20:39:37.088Z,100.00
2022-12-18T20:42:06.837Z,100.00
2022-12-18T20:44:36.306Z,100.00
2022-12-18T20:47:08.518Z,100.00
2022-12-18T20:49:40.708Z,100.00
2022-12-18T20:52:22.329Z,100.00
2022-12-18T20:54:52.703Z,100.00
2022-12-18T20:57:24.491Z,100.00
2022-12-18T21:00:06.314Z,100.00
2022-12-18T21:02:44.110Z,100.00
2022-12-18T21:05:17.070Z,100.00
2022-12-18T21:07:48.710Z,100.00
2022-12-18T21:10:16.899Z,100.00
2022-12-18T21:12:58.910Z,100.00
2022-12-18T21:15:36.432Z,100.00
2022-12-18T21:18:04.983Z,100.00
2022-12-18T21:20:39.359Z,100.00
2022-12-18T21:23:15.663Z,100.00
2022-12-18T21:25:56.243Z,100.00
2022-12-18T21:28:47.571Z,100.00
2022-12-18T21:31:20.000Z,100.00
2022-12-18T21:33:57.401Z,100.00
2022-12-18T21:36:37.008Z,100.00
2022-12-18T21:39:05.792Z,100.00
2022-12-18T21:41:54.096Z,100.00
2022-12-18T21:44:25.838Z,100.00
2022-12-18T21:46:58.967Z,100.00
2022-12-18T21:49:35.260Z,100.00
2022-12-18T21:52:05.544Z,100.00
2022-12-18T21:54:33.649Z,100.00
2022-12-18T21:57:06.370Z,100.00
2022-12-18T21:59:40.921Z,100.00
2022-12-18T22:02:12.040Z,100.00
2022-12-18T22:04:42.331Z,100.00
2022-12-18T22:07:13.315Z,100.00
2022-12-18T22:09:43.830Z,100.00
2022-12-18T22:12:35.674Z,100.00
2022-12-18T22:15:13.899Z,100.00
2022-12-18T22:17:49.357Z,100.00
2022-12-18T22:20:17.840Z,100.00
2022-12-18T22:22:54.345Z,100.00
2022-12-18T22:25:22.457Z,100.00
2022-12-18T22:28:10.719Z,100.00
2022-12-18T22:30:44.558Z,100.00
2022-12-18T22:33:15.275Z,100.00
2022-12-18T22:35:53.071Z,100.00
2022-12-18T22:38:22.742Z,100.00
2022-12-18T22:40:51.091Z,100.00
2022-12-18T22:43:19.232Z,100.00
2022-12-18T22:45:49.335Z,100.00
2022-12-18T22:48:17.762Z,100.00
2022-12-18T22:50:45.889Z,100.00
2022-12-18T22:53:14.199Z,100.00
2022-12-18T22:55:44.290Z,100.00
2022-12-18T22:58:12.322Z,100.00
2022-12-18T23:00:41.458Z,100.00
2022-12-18T23:03:10.307Z,100.00
2022-12-18T23:05:38.968Z,100.00
2022-12-18T23:08:07.668Z,100.00
2022-12-18T23:10:38.659Z,100.00
2022-12-18T23:13:08.541Z,100.00
2022-12-18T23:15:36.871Z,100.00
2022-12-18T23:18:05.253Z,100.00
2022-12-18T23:20:33.863Z,100.00
2022-12-18T23:23:02.276Z,100.00
2022-12-18T23:25:30.442Z,100.00
2022-12-18T23:27:58.570Z,100.00
2022-12-18T23:30:28.580Z,100.00
2022-12-18T23:32:59.803Z,100.00
2022-12-18T23:35:35.286Z,100.00
2022-12-18T23:38:03.506Z,100.00
2022-12-18T23:40:39.661Z,100.00
2022-12-18T23:43:07.701Z,100.00
2022-12-18T23:45:40.008Z,100.00
2022-12-18T23:48:08.272Z,100.00
2022-12-18T23:50:38.133Z,100.00
2022-12-18T23:53:08.828Z,100.00
2022-12-18T23:55:44.424Z,100.00
2022-12-18T23:58:19.629Z,100.00
